createdAt,value
2023-04-24T00:02:16.921Z,14.77
2023-04-24T00:04:47.935Z,14.79
2023-04-24T00:07:18.853Z,14.79
2023-04-24T00:09:49.813Z,14.80
2023-04-24T00:12:20.708Z,14.79
2023-04-24T00:14:51.586Z,14.79
2023-04-24T00:17:22.610Z,14.82
2023-04-24T00:19:59.518Z,14.85
2023-04-24T00:22:30.779Z,14.89
2023-04-24T00:25:01.579Z,14.91
2023-04-24T00:27:32.481Z,14.93
2023-04-24T00:30:03.544Z,14.95
2023-04-24T00:33:39.771Z,14.97
2023-04-24T00:36:10.732Z,14.92
2023-04-24T00:38:41.545Z,14.85
2023-04-24T00:41:12.398Z,14.79
2023-04-24T00:43:43.252Z,14.72
2023-04-24T00:46:14.121Z,14.62
2023-04-24T00:48:44.865Z,14.55
2023-04-24T00:51:15.933Z,14.53
2023-04-24T00:53:46.728Z,14.52
2023-04-24T00:56:19.174Z,14.54
2023-04-24T00:58:50.093Z,14.54
2023-04-24T01:01:21.971Z,14.55
2023-04-24T01:03:53.557Z,14.56
2023-04-24T01:06:24.629Z,14.55
2023-04-24T01:08:55.464Z,14.54
2023-04-24T01:11:26.264Z,14.52
2023-04-24T01:13:57.099Z,14.50
2023-04-24T01:16:28.310Z,14.48
2023-04-24T01:18:59.279Z,14.43
2023-04-24T01:21:30.156Z,14.42
2023-04-24T01:24:00.941Z,14.38
2023-04-24T01:26:31.699Z,14.32
2023-04-24T01:29:02.659Z,14.24
2023-04-24T01:31:34.319Z,14.19
2023-04-24T01:34:05.199Z,14.16
2023-04-24T01:36:36.260Z,14.16
2023-04-24T01:39:07.100Z,14.16
2023-04-24T01:41:38.025Z,14.16
2023-04-24T01:44:08.770Z,14.17
2023-04-24T01:46:39.633Z,14.16
2023-04-24T01:49:10.439Z,14.15
2023-04-24T01:51:41.259Z,14.14
2023-04-24T01:54:12.179Z,14.14
2023-04-24T01:56:44.237Z,14.13
2023-04-24T01:59:15.074Z,14.10
2023-04-24T02:01:45.880Z,14.04
2023-04-24T02:04:17.368Z,13.95
2023-04-24T02:06:48.448Z,13.87
2023-04-24T02:09:19.254Z,13.81
2023-04-24T02:11:49.969Z,13.78
2023-04-24T02:14:20.824Z,13.75
2023-04-24T02:16:51.651Z,13.71
2023-04-24T02:19:22.686Z,13.70
2023-04-24T02:21:53.671Z,13.70
2023-04-24T02:24:24.643Z,13.68
2023-04-24T02:26:55.975Z,13.67
2023-04-24T02:29:26.678Z,13.66
2023-04-24T02:31:57.667Z,13.65
2023-04-24T02:34:28.479Z,13.65
2023-04-24T02:36:59.342Z,13.65
2023-04-24T02:39:30.176Z,13.60
2023-04-24T02:42:01.309Z,13.54
2023-04-24T02:44:32.116Z,13.46
2023-04-24T02:47:03.013Z,13.39
2023-04-24T02:49:33.912Z,13.35
2023-04-24T02:52:04.673Z,13.32
2023-04-24T02:54:35.497Z,13.29
2023-04-24T02:57:07.286Z,13.27
2023-04-24T02:59:38.293Z,13.24
2023-04-24T03:02:09.149Z,13.15
2023-04-24T03:04:41.208Z,13.02
2023-04-24T03:07:12.134Z,12.93
2023-04-24T03:09:43.274Z,12.88
2023-04-24T03:12:14.402Z,12.81
2023-04-24T03:14:45.114Z,12.77
2023-04-24T03:17:15.982Z,12.77
2023-04-24T03:19:46.943Z,12.76
2023-04-24T03:22:17.820Z,12.77
2023-04-24T03:24:48.703Z,12.77
2023-04-24T03:27:19.559Z,12.75
2023-04-24T03:29:52.787Z,12.75
2023-04-24T03:32:24.459Z,12.80
2023-04-24T03:34:55.333Z,12.83
2023-04-24T03:37:27.577Z,12.84
2023-04-24T03:39:58.382Z,12.88
2023-04-24T03:42:32.207Z,12.92
2023-04-24T03:45:02.957Z,12.94
2023-04-24T03:47:33.862Z,12.94
2023-04-24T03:50:05.083Z,12.96
2023-04-24T03:52:36.265Z,12.99
2023-04-24T03:55:07.692Z,13.01
2023-04-24T03:57:38.435Z,13.03
2023-04-24T04:00:10.927Z,13.06
2023-04-24T04:02:41.874Z,13.08
2023-04-24T04:05:13.230Z,13.06
2023-04-24T04:07:43.995Z,13.01
2023-04-24T04:10:14.667Z,12.96
2023-04-24T04:12:45.673Z,12.93
2023-04-24T04:15:16.457Z,12.84
2023-04-24T04:17:48.218Z,12.76
2023-04-24T04:20:19.091Z,12.69
2023-04-24T04:22:50.016Z,12.64
2023-04-24T04:25:21.160Z,12.62
2023-04-24T04:27:52.313Z,12.68
2023-04-24T04:30:23.222Z,12.74
2023-04-24T04:32:54.160Z,12.78
2023-04-24T04:35:25.153Z,12.83
2023-04-24T04:37:57.217Z,12.87
2023-04-24T04:40:29.049Z,12.91
2023-04-24T04:43:00.026Z,12.96
2023-04-24T04:45:32.000Z,12.99
2023-04-24T04:48:03.635Z,13.02
2023-04-24T04:50:34.446Z,13.06
2023-04-24T04:53:05.197Z,13.06
2023-04-24T04:55:36.094Z,13.07
2023-04-24T04:58:06.828Z,13.11
2023-04-24T05:00:38.604Z,13.15
2023-04-24T05:03:20.058Z,13.18
2023-04-24T05:05:51.962Z,13.18
2023-04-24T05:10:56.571Z,13.25
2023-04-24T05:13:39.330Z,13.30
2023-04-24T05:16:11.992Z,13.38
2023-04-24T05:18:42.813Z,13.44
2023-04-24T05:21:14.122Z,13.50
2023-04-24T05:23:45.041Z,13.56
2023-04-24T05:26:15.819Z,13.63
2023-04-24T05:28:46.645Z,13.67
2023-04-24T05:31:18.959Z,13.74
2023-04-24T05:33:49.651Z,13.80
2023-04-24T05:36:20.802Z,13.83
2023-04-24T05:38:51.822Z,13.85
2023-04-24T05:41:23.613Z,13.89
2023-04-24T05:43:54.563Z,13.96
2023-04-24T05:46:25.422Z,14.03
2023-04-24T05:48:56.263Z,14.10
2023-04-24T05:51:27.397Z,14.18
2023-04-24T05:53:58.374Z,14.25
2023-04-24T05:56:29.245Z,14.35
2023-04-24T05:59:00.170Z,14.42
2023-04-24T06:01:32.553Z,14.50
2023-04-24T06:04:03.529Z,14.59
2023-04-24T06:06:34.475Z,14.68
2023-04-24T06:09:05.955Z,14.81
2023-04-24T06:11:36.960Z,14.95
2023-04-24T06:14:07.743Z,15.13
2023-04-24T06:16:40.083Z,15.32
2023-04-24T06:19:10.855Z,15.47
2023-04-24T06:21:41.653Z,15.61
2023-04-24T06:24:13.278Z,15.70
2023-04-24T06:26:44.055Z,15.76
2023-04-24T06:29:14.806Z,15.82
2023-04-24T06:31:45.558Z,15.90
2023-04-24T06:34:16.349Z,15.94
2023-04-24T06:36:47.082Z,16.02
2023-04-24T06:39:18.016Z,16.08
2023-04-24T06:41:48.894Z,16.14
2023-04-24T06:44:19.751Z,16.23
2023-04-24T06:46:50.386Z,16.26
2023-04-24T06:49:21.287Z,16.25
2023-04-24T06:51:52.012Z,16.27
2023-04-24T06:54:22.845Z,16.36
2023-04-24T06:56:53.613Z,16.47
2023-04-24T06:59:24.543Z,16.57
2023-04-24T07:01:55.790Z,16.66
2023-04-24T07:04:27.271Z,16.85
2023-04-24T07:06:59.349Z,17.08
2023-04-24T07:09:30.224Z,17.34
2023-04-24T07:12:01.339Z,17.57
2023-04-24T07:14:32.268Z,17.79
2023-04-24T07:17:03.211Z,18.00
2023-04-24T07:19:34.171Z,18.24
2023-04-24T07:22:04.869Z,18.42
2023-04-24T07:24:35.622Z,18.51
2023-04-24T07:27:06.529Z,18.64
2023-04-24T07:29:37.550Z,18.82
2023-04-24T07:32:08.985Z,18.92
2023-04-24T07:34:39.871Z,19.03
2023-04-24T07:37:10.792Z,19.23
2023-04-24T07:39:41.841Z,19.26
2023-04-24T07:42:12.718Z,19.23
2023-04-24T07:44:43.549Z,19.28
2023-04-24T07:47:15.969Z,19.34
2023-04-24T07:49:46.664Z,19.42
2023-04-24T07:52:17.492Z,19.43
2023-04-24T07:54:48.599Z,19.47
2023-04-24T07:57:19.371Z,19.41
2023-04-24T07:59:50.148Z,19.30
2023-04-24T08:02:22.906Z,19.23
2023-04-24T08:04:53.917Z,19.13
2023-04-24T08:07:25.444Z,19.09
2023-04-24T08:09:56.326Z,19.08
2023-04-24T08:12:27.192Z,19.12
2023-04-24T08:14:57.855Z,19.20
2023-04-24T08:17:28.620Z,19.26
2023-04-24T08:20:02.911Z,19.35
2023-04-24T08:22:33.806Z,19.37
2023-04-24T08:25:04.704Z,19.39
2023-04-24T08:27:35.625Z,19.43
2023-04-24T08:30:06.852Z,19.52
2023-04-24T08:32:38.146Z,19.52
2023-04-24T08:35:10.903Z,19.59
2023-04-24T08:37:41.735Z,19.68
2023-04-24T08:40:15.335Z,19.90
2023-04-24T08:42:46.669Z,20.10
2023-04-24T08:45:17.549Z,20.34
2023-04-24T08:47:48.375Z,20.61
2023-04-24T08:50:19.323Z,20.82
2023-04-24T08:52:50.713Z,20.87
2023-04-24T08:55:21.816Z,20.95
2023-04-24T08:57:55.384Z,21.08
2023-04-24T09:00:26.130Z,21.24
2023-04-24T09:02:57.377Z,21.63
2023-04-24T09:05:28.619Z,21.82
2023-04-24T09:07:59.624Z,21.96
2023-04-24T09:10:31.741Z,22.15
2023-04-24T09:13:03.731Z,22.30
2023-04-24T09:15:34.902Z,22.30
2023-04-24T09:18:06.312Z,22.42
2023-04-24T09:20:37.843Z,22.55
2023-04-24T09:23:11.341Z,22.72
2023-04-24T09:25:42.827Z,22.94
2023-04-24T09:28:13.655Z,23.26
2023-04-24T09:30:44.456Z,23.54
2023-04-24T09:33:15.874Z,23.78
2023-04-24T09:35:50.698Z,23.91
2023-04-24T09:38:22.348Z,24.02
2023-04-24T09:40:53.235Z,24.01
2023-04-24T09:43:24.039Z,23.83
2023-04-24T09:45:58.040Z,23.78
2023-04-24T09:48:35.880Z,23.92
2023-04-24T09:51:08.089Z,24.13
2023-04-24T09:53:40.423Z,24.37
2023-04-24T09:56:13.547Z,24.63
2023-04-24T09:58:44.399Z,24.87
2023-04-24T10:01:15.257Z,24.98
2023-04-24T10:03:46.226Z,24.85
2023-04-24T10:06:17.134Z,24.64
2023-04-24T10:08:57.193Z,24.57
2023-04-24T10:11:28.143Z,24.33
2023-04-24T10:13:59.402Z,24.17
2023-04-24T10:16:30.408Z,24.42
2023-04-24T10:19:01.296Z,24.84
2023-04-24T10:21:32.202Z,24.92
2023-04-24T10:24:04.786Z,24.99
2023-04-24T10:26:35.505Z,25.28
2023-04-24T10:29:06.082Z,25.58
2023-04-24T10:31:36.984Z,25.78
2023-04-24T10:34:07.766Z,25.86
2023-04-24T10:36:39.293Z,26.08
2023-04-24T10:39:12.901Z,26.54
2023-04-24T10:41:43.727Z,26.94
2023-04-24T10:44:15.102Z,27.03
2023-04-24T10:46:47.035Z,26.82
2023-04-24T10:49:17.670Z,26.74
2023-04-24T10:51:49.382Z,27.09
2023-04-24T10:54:26.866Z,27.62
2023-04-24T10:57:13.516Z,27.96
2023-04-24T10:59:44.252Z,27.79
2023-04-24T11:02:16.212Z,27.64
2023-04-24T11:04:47.448Z,27.65
2023-04-24T11:07:18.328Z,27.54
2023-04-24T11:09:49.027Z,27.61
2023-04-24T11:12:19.865Z,27.71
2023-04-24T11:15:04.440Z,27.80
2023-04-24T11:17:35.938Z,27.67
2023-04-24T11:20:22.845Z,27.40
2023-04-24T11:22:59.015Z,27.64
2023-04-24T11:25:31.170Z,28.02
2023-04-24T11:28:07.302Z,28.47
2023-04-24T11:30:37.938Z,28.94
2023-04-24T11:33:08.797Z,28.93
2023-04-24T11:35:41.745Z,28.58
2023-04-24T11:38:24.057Z,28.19
2023-04-24T11:40:56.253Z,28.00
2023-04-24T11:43:27.223Z,27.96
2023-04-24T11:45:59.292Z,27.77
2023-04-24T11:48:30.490Z,28.02
2023-04-24T11:51:01.671Z,28.21
2023-04-24T11:53:32.426Z,28.44
2023-04-24T11:56:07.021Z,28.74
2023-04-24T11:58:39.332Z,28.97
2023-04-24T12:01:10.113Z,28.88
2023-04-24T12:03:41.408Z,28.86
2023-04-24T12:06:13.768Z,28.78
2023-04-24T12:08:44.676Z,28.85
2023-04-24T12:11:16.811Z,28.86
2023-04-24T12:13:48.446Z,28.93
2023-04-24T12:16:19.203Z,28.94
2023-04-24T12:18:50.002Z,28.82
2023-04-24T12:21:23.093Z,28.78
2023-04-24T12:23:56.427Z,28.49
2023-04-24T12:26:27.816Z,28.48
2023-04-24T12:28:58.571Z,28.87
2023-04-24T12:31:30.689Z,29.20
2023-04-24T12:34:01.766Z,29.49
2023-04-24T12:36:32.515Z,29.32
2023-04-24T12:39:03.114Z,28.81
2023-04-24T12:41:34.002Z,28.27
2023-04-24T12:44:04.770Z,28.21
2023-04-24T12:46:35.404Z,28.35
2023-04-24T12:49:06.343Z,28.47
2023-04-24T12:51:37.174Z,28.52
2023-04-24T12:54:08.474Z,28.59
2023-04-24T12:56:40.552Z,28.39
2023-04-24T12:59:11.414Z,28.22
2023-04-24T13:01:42.779Z,28.02
2023-04-24T13:04:13.678Z,28.04
2023-04-24T13:06:44.539Z,28.11
2023-04-24T13:09:15.409Z,28.11
2023-04-24T13:11:46.091Z,28.00
2023-04-24T13:14:16.935Z,27.61
2023-04-24T13:16:47.683Z,27.32
2023-04-24T13:19:18.435Z,27.15
2023-04-24T13:21:49.390Z,27.02
2023-04-24T13:24:21.310Z,26.96
2023-04-24T13:26:52.153Z,26.94
2023-04-24T13:29:22.820Z,27.01
2023-04-24T13:31:58.476Z,26.98
2023-04-24T13:34:30.021Z,26.98
2023-04-24T13:37:00.843Z,27.05
2023-04-24T13:39:31.814Z,27.09
2023-04-24T13:42:04.626Z,26.88
2023-04-24T13:44:35.963Z,26.57
2023-04-24T13:47:06.797Z,26.49
2023-04-24T13:49:37.525Z,26.39
2023-04-24T13:52:08.580Z,26.30
2023-04-24T13:54:39.405Z,26.09
2023-04-24T13:57:10.386Z,25.68
2023-04-24T13:59:41.199Z,25.44
2023-04-24T14:02:11.960Z,25.35
2023-04-24T14:04:45.227Z,25.27
2023-04-24T14:07:16.116Z,25.20
2023-04-24T14:09:46.848Z,25.15
2023-04-24T14:12:19.739Z,25.17
2023-04-24T14:14:50.642Z,25.22
2023-04-24T14:17:21.501Z,25.33
2023-04-24T14:19:53.067Z,25.40
2023-04-24T14:22:24.054Z,25.48
2023-04-24T14:24:54.951Z,25.46
2023-04-24T14:27:26.504Z,25.39
2023-04-24T14:29:58.206Z,25.42
2023-04-24T14:32:29.289Z,25.51
2023-04-24T14:35:00.157Z,25.60
2023-04-24T14:37:31.333Z,25.63
2023-04-24T14:42:37.905Z,25.73
2023-04-24T14:45:10.134Z,25.77
2023-04-24T14:47:41.012Z,25.89
2023-04-24T14:50:13.626Z,25.87
2023-04-24T14:52:44.355Z,25.69
2023-04-24T14:55:15.567Z,25.46
2023-04-24T14:57:46.396Z,25.33
2023-04-24T15:00:18.282Z,25.24
2023-04-24T15:02:49.133Z,25.10
2023-04-24T15:05:20.979Z,24.91
2023-04-24T15:07:51.900Z,24.88
2023-04-24T15:10:24.105Z,24.78
2023-04-24T15:12:54.881Z,24.75
2023-04-24T15:15:25.692Z,24.76
2023-04-24T15:17:56.686Z,24.75
2023-04-24T15:20:27.497Z,24.77
2023-04-24T15:23:00.461Z,24.72
2023-04-24T15:25:31.112Z,24.59
2023-04-24T15:28:02.332Z,24.54
2023-04-24T15:30:33.203Z,24.50
2023-04-24T15:33:04.103Z,24.51
2023-04-24T15:35:35.924Z,24.46
2023-04-24T15:38:07.220Z,24.34
2023-04-24T15:40:37.903Z,24.17
2023-04-24T15:43:08.639Z,24.04
2023-04-24T15:45:39.496Z,23.96
2023-04-24T15:48:10.331Z,23.92
2023-04-24T15:50:41.222Z,23.82
2023-04-24T15:53:12.635Z,23.70
2023-04-24T15:55:43.269Z,23.56
2023-04-24T15:58:14.333Z,23.50
2023-04-24T16:00:45.309Z,23.49
2023-04-24T16:03:16.293Z,23.47
2023-04-24T16:05:47.397Z,23.43
2023-04-24T16:08:18.203Z,23.39
2023-04-24T16:10:49.173Z,23.32
2023-04-24T16:13:20.094Z,23.24
2023-04-24T16:15:52.184Z,23.24
2023-04-24T16:18:23.433Z,23.21
2023-04-24T16:20:54.851Z,23.06
2023-04-24T16:23:25.805Z,22.97
2023-04-24T16:25:56.606Z,22.94
2023-04-24T16:28:28.598Z,22.90
2023-04-24T16:31:03.199Z,22.83
2023-04-24T16:33:34.229Z,22.72
2023-04-24T16:36:07.363Z,22.68
2023-04-24T16:38:38.680Z,22.65
2023-04-24T16:41:09.722Z,22.61
2023-04-24T16:43:40.733Z,22.58
2023-04-24T16:46:11.643Z,22.51
2023-04-24T16:48:42.622Z,22.47
2023-04-24T16:51:13.458Z,22.43
2023-04-24T16:53:44.431Z,22.38
2023-04-24T16:56:16.166Z,22.35
2023-04-24T16:58:47.275Z,22.31
2023-04-24T17:01:18.618Z,22.25
2023-04-24T17:03:49.508Z,22.21
2023-04-24T17:06:20.597Z,22.19
2023-04-24T17:08:51.437Z,22.16
2023-04-24T17:11:23.181Z,22.15
2023-04-24T17:13:54.243Z,22.13
2023-04-24T17:16:25.059Z,22.06
2023-04-24T17:18:56.108Z,21.99
2023-04-24T17:21:28.122Z,21.91
2023-04-24T17:23:58.998Z,21.86
2023-04-24T17:26:32.408Z,21.82
2023-04-24T17:29:03.760Z,21.77
2023-04-24T17:31:34.470Z,21.74
2023-04-24T17:34:06.546Z,21.67
2023-04-24T17:36:41.793Z,21.62
2023-04-24T17:39:12.732Z,21.58
2023-04-24T17:47:58.937Z,21.44
2023-04-24T17:50:57.810Z,21.43
2023-04-24T18:24:22.600Z,20.98
2023-04-24T18:26:50.898Z,20.97
2023-04-24T18:29:18.940Z,20.93
2023-04-24T18:31:47.103Z,20.90
2023-04-24T18:34:15.167Z,20.86
2023-04-24T18:36:46.038Z,20.86
2023-04-24T18:39:17.463Z,20.84
2023-04-24T18:41:46.922Z,20.81
2023-04-24T18:44:15.287Z,20.74
2023-04-24T18:47:05.397Z,20.67
2023-04-24T18:49:33.884Z,20.58
2023-04-24T18:52:11.612Z,20.53
2023-04-24T18:54:40.642Z,20.52
2023-04-24T18:57:10.176Z,20.52
2023-04-24T18:59:38.538Z,20.52
2023-04-24T19:02:07.066Z,20.51
2023-04-24T19:04:35.495Z,20.51
2023-04-24T19:07:03.977Z,20.49
2023-04-24T19:09:32.115Z,20.46
2023-04-24T19:12:01.431Z,20.46
2023-04-24T19:14:29.798Z,20.46
2023-04-24T19:16:58.068Z,20.42
2023-04-24T19:19:28.223Z,20.32
2023-04-24T19:38:25.332Z,19.92
2023-04-24T19:40:56.315Z,19.96
2023-04-24T19:43:27.377Z,20.01
2023-04-24T19:45:58.784Z,20.02
2023-04-24T19:48:34.054Z,20.04
2023-04-24T19:51:07.956Z,20.00
2023-04-24T19:53:38.858Z,19.89
2023-04-24T19:56:12.032Z,19.73
2023-04-24T19:58:45.932Z,19.53
2023-04-24T20:01:21.178Z,19.37
2023-04-24T20:03:52.494Z,19.26
2023-04-24T20:06:23.499Z,19.13
2023-04-24T20:08:56.811Z,19.05
2023-04-24T20:11:27.696Z,18.97
2023-04-24T20:13:58.584Z,18.92
2023-04-24T20:16:29.797Z,18.85
2023-04-24T20:19:01.236Z,18.75
2023-04-24T20:21:32.577Z,18.66
2023-04-24T20:24:04.667Z,18.62
2023-04-24T20:26:36.384Z,18.61
2023-04-24T20:29:11.361Z,18.59
2023-04-24T20:31:42.863Z,18.58
2023-04-24T20:34:13.852Z,18.55
2023-04-24T20:36:49.412Z,18.53
2023-04-24T20:39:20.983Z,18.51
2023-04-24T20:41:52.507Z,18.53
2023-04-24T20:44:25.456Z,18.55
2023-04-24T20:46:56.546Z,18.51
2023-04-24T20:49:29.817Z,18.43
2023-04-24T20:52:00.697Z,18.34
2023-04-24T20:54:31.793Z,18.31
2023-04-24T20:57:03.271Z,18.29
2023-04-24T20:59:34.232Z,18.25
2023-04-24T21:02:05.196Z,18.20
2023-04-24T21:04:38.832Z,18.15
2023-04-24T21:07:11.930Z,18.10
2023-04-24T21:09:42.854Z,18.04
2023-04-24T21:12:13.688Z,17.97
2023-04-24T21:14:44.472Z,17.97
2023-04-24T21:17:16.213Z,17.97
2023-04-24T21:19:47.176Z,17.99
2023-04-24T21:22:18.000Z,18.03
2023-04-24T21:24:48.791Z,18.08
2023-04-24T21:27:19.661Z,18.12
2023-04-24T21:29:50.690Z,18.12
2023-04-24T21:32:21.601Z,18.13
2023-04-24T21:34:52.554Z,18.10
2023-04-24T21:37:23.358Z,18.09
2023-04-24T21:39:54.376Z,18.10
2023-04-24T21:42:25.341Z,18.09
2023-04-24T21:44:56.248Z,18.05
2023-04-24T21:47:27.120Z,18.01
2023-04-24T21:49:57.999Z,17.96
2023-04-24T21:52:28.797Z,17.91
2023-04-24T21:54:59.645Z,17.88
2023-04-24T21:57:30.534Z,17.88
2023-04-24T22:00:01.497Z,17.87
2023-04-24T22:02:32.948Z,17.88
2023-04-24T22:05:04.685Z,17.89
2023-04-24T22:07:36.592Z,17.89
2023-04-24T22:10:08.854Z,17.83
2023-04-24T22:12:39.768Z,17.76
2023-04-24T22:15:11.042Z,17.73
2023-04-24T22:17:42.134Z,17.72
2023-04-24T22:20:14.051Z,17.73
2023-04-24T22:22:44.913Z,17.73
2023-04-24T22:25:15.775Z,17.70
2023-04-24T22:27:46.786Z,17.68
2023-04-24T22:30:17.710Z,17.64
2023-04-24T22:32:48.781Z,17.57
2023-04-24T22:35:20.472Z,17.55
2023-04-24T22:37:53.301Z,17.55
2023-04-24T22:40:24.074Z,17.53
2023-04-24T22:42:54.825Z,17.46
2023-04-24T22:45:26.295Z,17.40
2023-04-24T22:47:57.367Z,17.39
2023-04-24T22:50:29.245Z,17.30
2023-04-24T22:53:00.107Z,17.19
2023-04-24T22:55:31.625Z,17.08
2023-04-24T22:58:02.398Z,17.00
2023-04-24T23:00:33.259Z,16.95
2023-04-24T23:03:04.921Z,16.98
2023-04-24T23:05:36.272Z,16.96
2023-04-24T23:08:07.229Z,16.93
2023-04-24T23:10:38.313Z,16.91
2023-04-24T23:13:09.096Z,16.89
2023-04-24T23:15:40.147Z,16.85
2023-04-24T23:18:11.847Z,16.82
2023-04-24T23:20:43.410Z,16.82
2023-04-24T23:23:14.193Z,16.84
2023-04-24T23:25:45.179Z,16.81
2023-04-24T23:28:15.954Z,16.74
2023-04-24T23:30:46.943Z,16.69
2023-04-24T23:33:17.716Z,16.68
2023-04-24T23:35:48.503Z,16.66
2023-04-24T23:38:19.317Z,16.66
2023-04-24T23:40:50.798Z,16.70
2023-04-24T23:43:21.665Z,16.75
2023-04-24T23:45:52.698Z,16.77
2023-04-24T23:48:23.523Z,16.79
2023-04-24T23:50:54.345Z,16.84
2023-04-24T23:53:25.185Z,16.87
2023-04-24T23:55:56.016Z,16.89
2023-04-24T23:58:26.879Z,16.88
